createdAt,value
2018-05-29T00:02:15.846Z,99.90
2018-05-29T00:04:43.460Z,99.90
2018-05-29T00:07:10.986Z,99.90
2018-05-29T00:09:39.297Z,99.90
2018-05-29T00:12:06.867Z,99.90
2018-05-29T00:14:34.414Z,99.90
2018-05-29T00:17:01.937Z,99.90
2018-05-29T00:19:30.261Z,99.90
2018-05-29T00:21:57.785Z,99.90
2018-05-29T00:24:26.110Z,99.90
2018-05-29T00:26:53.632Z,99.90
2018-05-29T00:29:22.309Z,99.90
2018-05-29T00:31:50.623Z,99.90
2018-05-29T00:34:18.152Z,99.90
2018-05-29T00:36:45.701Z,99.90
2018-05-29T00:39:13.230Z,99.90
2018-05-29T00:41:40.774Z,99.90
2018-05-29T00:44:08.329Z,99.90
2018-05-29T00:46:35.876Z,99.90
2018-05-29T00:49:03.448Z,99.90
2018-05-29T00:51:31.002Z,99.90
2018-05-29T00:53:58.541Z,99.90
2018-05-29T00:56:26.852Z,99.90
2018-05-29T00:58:54.423Z,99.90
2018-05-29T01:01:21.969Z,99.90
2018-05-29T01:03:49.496Z,99.90
2018-05-29T01:06:17.809Z,99.90
2018-05-29T01:08:45.344Z,99.90
2018-05-29T01:11:13.655Z,99.90
2018-05-29T01:13:41.185Z,99.90
2018-05-29T01:16:09.593Z,99.90
2018-05-29T01:18:37.173Z,99.90
2018-05-29T01:21:04.706Z,99.90
2018-05-29T01:23:32.257Z,99.90
2018-05-29T01:25:59.775Z,99.90
2018-05-29T01:28:28.216Z,99.90
2018-05-29T01:30:55.776Z,99.90
2018-05-29T01:33:23.320Z,99.90
2018-05-29T01:35:50.854Z,99.90
2018-05-29T01:38:18.403Z,99.90
2018-05-29T01:40:45.932Z,99.90
2018-05-29T01:43:13.481Z,99.90
2018-05-29T01:45:41.000Z,99.90
2018-05-29T01:48:09.310Z,99.90
2018-05-29T01:50:36.890Z,99.90
2018-05-29T01:53:04.441Z,99.90
2018-05-29T01:55:31.965Z,99.90
2018-05-29T01:58:00.281Z,99.90
2018-05-29T02:00:27.809Z,99.90
2018-05-29T02:02:56.133Z,99.90
2018-05-29T02:05:23.681Z,99.90
2018-05-29T02:07:51.208Z,99.90
2018-05-29T02:10:19.515Z,99.90
2018-05-29T02:12:47.045Z,99.90
2018-05-29T02:15:15.352Z,99.90
2018-05-29T02:17:42.877Z,99.90
2018-05-29T02:20:11.190Z,99.90
2018-05-29T02:22:38.712Z,99.90
2018-05-29T02:25:07.025Z,99.90
2018-05-29T02:27:34.558Z,99.90
2018-05-29T02:30:02.876Z,99.90
2018-05-29T02:32:37.320Z,99.90
2018-05-29T02:35:06.930Z,99.90
2018-05-29T02:37:34.470Z,99.90
2018-05-29T02:40:09.549Z,99.90
2018-05-29T02:42:39.072Z,99.90
2018-05-29T02:45:07.380Z,99.90
2018-05-29T02:47:34.905Z,99.90
2018-05-29T02:50:03.820Z,99.90
2018-05-29T02:52:32.787Z,99.90
2018-05-29T02:55:04.169Z,99.90
2018-05-29T02:57:36.873Z,99.90
2018-05-29T03:00:13.106Z,99.90
2018-05-29T03:02:44.320Z,99.90
2018-05-29T03:05:14.519Z,99.90
2018-05-29T03:07:42.619Z,99.90
2018-05-29T03:10:10.181Z,99.90
2018-05-29T03:12:37.711Z,99.90
2018-05-29T03:15:05.238Z,99.90
2018-05-29T03:17:33.549Z,99.90
2018-05-29T03:20:01.074Z,99.90
2018-05-29T03:22:29.387Z,99.90
2018-05-29T03:24:56.913Z,99.90
2018-05-29T03:27:25.225Z,99.90
2018-05-29T03:29:52.753Z,99.90
2018-05-29T03:32:21.065Z,99.90
2018-05-29T03:34:48.592Z,99.90
2018-05-29T03:37:16.905Z,99.90
2018-05-29T03:39:44.427Z,99.90
2018-05-29T03:42:12.737Z,99.90
2018-05-29T03:44:40.312Z,99.90
2018-05-29T03:47:07.871Z,99.90
2018-05-29T03:49:35.396Z,99.90
2018-05-29T03:52:03.700Z,99.90
2018-05-29T03:54:31.268Z,99.90
2018-05-29T03:56:58.823Z,99.90
2018-05-29T03:59:26.345Z,99.90
2018-05-29T04:01:54.628Z,99.90
2018-05-29T04:04:22.940Z,99.90
2018-05-29T04:06:50.464Z,99.90
2018-05-29T04:09:20.463Z,99.90
2018-05-29T04:11:47.979Z,99.90
2018-05-29T04:14:15.524Z,99.90
2018-05-29T04:16:43.045Z,99.90
2018-05-29T04:19:10.585Z,99.90
2018-05-29T04:21:38.103Z,99.90
2018-05-29T04:24:05.640Z,99.90
2018-05-29T04:26:33.160Z,99.90
2018-05-29T04:29:00.696Z,99.90
2018-05-29T04:31:28.264Z,99.90
2018-05-29T04:33:55.806Z,99.90
2018-05-29T04:36:24.096Z,99.90
2018-05-29T04:38:51.639Z,99.90
2018-05-29T04:41:19.932Z,99.90
2018-05-29T04:43:47.539Z,99.90
2018-05-29T04:46:15.078Z,99.90
2018-05-29T04:48:42.617Z,99.90
2018-05-29T04:51:10.141Z,99.90
2018-05-29T04:53:37.659Z,99.90
2018-05-29T04:56:05.219Z,99.90
2018-05-29T04:58:32.771Z,99.90
2018-05-29T05:01:00.317Z,99.90
2018-05-29T05:03:27.839Z,99.90
2018-05-29T05:05:55.389Z,99.90
2018-05-29T05:08:22.913Z,99.90
2018-05-29T05:10:50.455Z,99.90
2018-05-29T05:13:18.037Z,99.90
2018-05-29T05:15:45.592Z,99.90
2018-05-29T05:18:13.116Z,99.90
2018-05-29T05:20:41.421Z,99.90
2018-05-29T05:23:08.940Z,99.90
2018-05-29T05:25:36.485Z,99.90
2018-05-29T05:28:04.016Z,99.90
2018-05-29T05:30:31.561Z,99.90
2018-05-29T05:32:59.088Z,99.90
2018-05-29T05:35:27.480Z,96.00
2018-05-29T05:37:54.943Z,95.60
2018-05-29T05:40:23.260Z,93.70
2018-05-29T05:42:50.795Z,93.70
2018-05-29T05:45:18.330Z,90.90
2018-05-29T05:47:45.871Z,90.50
2018-05-29T05:50:13.396Z,88.30
2018-05-29T05:52:40.991Z,88.10
2018-05-29T05:55:08.484Z,85.30
2018-05-29T05:57:36.798Z,81.60
2018-05-29T06:00:04.366Z,81.60
2018-05-29T06:02:31.904Z,80.70
2018-05-29T06:04:59.438Z,81.10
2018-05-29T06:07:27.755Z,77.00
2018-05-29T06:09:55.275Z,76.90
2018-05-29T06:12:23.583Z,79.20
2018-05-29T06:14:51.110Z,79.10
2018-05-29T06:17:18.652Z,77.00
2018-05-29T06:19:46.176Z,77.30
2018-05-29T06:22:13.844Z,77.50
2018-05-29T06:24:41.363Z,80.20
2018-05-29T06:27:08.885Z,78.80
2018-05-29T06:29:36.424Z,78.20
2018-05-29T06:32:03.946Z,76.60
2018-05-29T06:34:32.252Z,78.60
2018-05-29T06:36:59.777Z,78.60
2018-05-29T06:39:27.321Z,78.30
2018-05-29T06:41:54.836Z,74.80
2018-05-29T06:44:22.385Z,72.70
2018-05-29T06:46:49.920Z,75.00
2018-05-29T06:49:17.466Z,74.30
2018-05-29T06:51:45.005Z,74.90
2018-05-29T06:54:12.545Z,74.20
2018-05-29T06:56:40.064Z,74.50
2018-05-29T06:59:07.623Z,73.50
2018-05-29T07:01:35.917Z,74.70
2018-05-29T07:04:04.208Z,74.40
2018-05-29T07:06:32.521Z,75.60
2018-05-29T07:09:00.081Z,75.60
2018-05-29T07:11:27.628Z,73.70
2018-05-29T07:13:55.157Z,75.30
2018-05-29T07:16:23.468Z,79.60
2018-05-29T07:18:50.995Z,79.60
2018-05-29T07:21:19.304Z,77.70
2018-05-29T07:23:46.819Z,77.30
2018-05-29T07:26:15.457Z,77.70
2018-05-29T07:28:42.980Z,79.00
2018-05-29T07:31:10.531Z,79.00
2018-05-29T07:33:38.060Z,77.20
2018-05-29T07:36:05.612Z,75.80
2018-05-29T07:38:33.132Z,76.60
2018-05-29T07:41:01.439Z,77.10
2018-05-29T07:43:28.970Z,77.00
2018-05-29T07:45:57.280Z,78.70
2018-05-29T07:48:24.796Z,78.70
2018-05-29T07:50:52.416Z,75.40
2018-05-29T07:53:19.932Z,76.70
2018-05-29T07:55:48.260Z,76.90
2018-05-29T07:58:15.816Z,76.90
2018-05-29T08:00:43.344Z,77.00
2018-05-29T08:03:11.764Z,78.50
2018-05-29T08:05:39.320Z,78.50
2018-05-29T08:08:06.888Z,78.20
2018-05-29T08:10:34.423Z,81.40
2018-05-29T08:13:01.976Z,82.60
2018-05-29T08:15:30.265Z,82.70
2018-05-29T08:17:57.804Z,82.60
2018-05-29T08:20:26.092Z,81.30
2018-05-29T08:22:54.405Z,84.70
2018-05-29T08:25:21.968Z,84.70
2018-05-29T08:27:49.525Z,80.90
2018-05-29T08:30:17.044Z,81.30
2018-05-29T08:32:45.352Z,74.30
2018-05-29T08:35:12.880Z,74.20
2018-05-29T08:37:40.423Z,76.00
2018-05-29T08:40:07.940Z,77.10
2018-05-29T08:42:35.488Z,76.60
2018-05-29T08:45:03.780Z,75.10
2018-05-29T08:47:31.328Z,75.10
2018-05-29T08:49:59.619Z,73.00
2018-05-29T08:52:27.144Z,73.00
2018-05-29T08:54:54.683Z,72.90
2018-05-29T08:57:22.211Z,75.60
2018-05-29T08:59:49.758Z,77.50
2018-05-29T09:02:17.284Z,76.80
2018-05-29T09:04:44.832Z,78.40
2018-05-29T09:07:12.357Z,79.20
2018-05-29T09:09:39.899Z,80.60
2018-05-29T09:12:07.425Z,80.10
2018-05-29T09:14:34.965Z,82.30
2018-05-29T09:17:02.484Z,78.30
2018-05-29T09:19:30.024Z,77.70
2018-05-29T09:21:58.340Z,79.10
2018-05-29T09:24:25.888Z,79.10
2018-05-29T09:26:53.416Z,78.00
2018-05-29T09:29:21.723Z,79.10
2018-05-29T09:31:49.244Z,79.30
2018-05-29T09:34:16.788Z,75.40
2018-05-29T09:36:44.319Z,76.30
2018-05-29T09:39:11.860Z,79.80
2018-05-29T09:41:39.448Z,74.50
2018-05-29T09:44:06.978Z,75.80
2018-05-29T09:46:35.289Z,73.30
2018-05-29T09:49:02.817Z,73.30
2018-05-29T09:51:31.192Z,68.10
2018-05-29T09:53:59.510Z,71.20
2018-05-29T09:56:27.065Z,71.10
2018-05-29T09:58:54.591Z,72.20
2018-05-29T10:01:22.900Z,67.70
2018-05-29T10:03:50.424Z,67.70
2018-05-29T10:06:18.738Z,67.60
2018-05-29T10:08:46.268Z,67.50
2018-05-29T10:11:14.596Z,69.50
2018-05-29T10:13:42.152Z,69.50
2018-05-29T10:16:09.701Z,71.90
2018-05-29T10:18:40.156Z,70.00
2018-05-29T10:21:08.503Z,71.20
2018-05-29T10:23:36.039Z,71.80
2018-05-29T10:26:05.351Z,72.10
2018-05-29T10:28:33.639Z,72.60
2018-05-29T10:31:01.169Z,72.60
2018-05-29T10:33:28.711Z,74.10
2018-05-29T10:35:56.233Z,74.30
2018-05-29T10:38:23.772Z,73.80
2018-05-29T10:40:52.059Z,70.70
2018-05-29T10:43:19.645Z,70.70
2018-05-29T10:45:47.169Z,69.10
2018-05-29T10:48:15.485Z,67.30
2018-05-29T10:50:43.012Z,67.20
2018-05-29T10:53:11.321Z,69.10
2018-05-29T10:55:38.850Z,70.00
2018-05-29T10:58:07.157Z,69.20
2018-05-29T11:00:34.680Z,69.10
2018-05-29T11:03:02.982Z,66.90
2018-05-29T11:05:30.510Z,66.90
2018-05-29T11:07:58.052Z,69.70
2018-05-29T11:10:27.099Z,69.10
2018-05-29T11:12:54.655Z,69.00
2018-05-29T11:15:22.184Z,67.40
2018-05-29T11:17:49.707Z,67.50
2018-05-29T11:20:17.254Z,69.20
2018-05-29T11:22:44.780Z,71.30
2018-05-29T11:25:13.104Z,64.70
2018-05-29T11:27:40.629Z,64.60
2018-05-29T11:30:08.935Z,71.10
2018-05-29T11:32:36.455Z,71.10
2018-05-29T11:35:04.768Z,71.80
2018-05-29T11:37:32.300Z,71.60
2018-05-29T11:40:00.716Z,66.50
2018-05-29T11:42:28.281Z,66.50
2018-05-29T11:44:55.804Z,65.20
2018-05-29T11:47:24.093Z,64.00
2018-05-29T11:49:51.676Z,64.00
2018-05-29T11:52:19.201Z,63.80
2018-05-29T11:54:47.638Z,62.90
2018-05-29T11:57:15.139Z,63.00
2018-05-29T11:59:43.423Z,65.90
2018-05-29T12:02:11.733Z,66.40
2018-05-29T12:04:39.256Z,65.50
2018-05-29T12:07:07.556Z,67.30
2018-05-29T12:09:35.084Z,67.30
2018-05-29T12:12:14.640Z,67.00
2018-05-29T12:14:45.631Z,65.80
2018-05-29T12:17:13.173Z,65.80
2018-05-29T12:19:40.704Z,65.10
2018-05-29T12:22:09.025Z,69.40
2018-05-29T12:24:36.557Z,69.30
2018-05-29T12:27:04.859Z,68.10
2018-05-29T12:29:32.384Z,68.10
2018-05-29T12:32:00.702Z,68.70
2018-05-29T12:34:28.225Z,68.70
2018-05-29T12:36:56.528Z,70.30
2018-05-29T12:39:24.048Z,70.20
2018-05-29T12:41:51.667Z,65.20
2018-05-29T12:44:19.201Z,64.40
2018-05-29T12:46:47.514Z,65.40
2018-05-29T12:49:15.071Z,65.40
2018-05-29T12:51:42.613Z,61.80
2018-05-29T12:54:10.156Z,62.70
2018-05-29T12:56:38.445Z,61.50
2018-05-29T12:59:06.064Z,61.50
2018-05-29T13:01:33.595Z,64.10
2018-05-29T13:04:01.146Z,65.10
2018-05-29T13:06:28.677Z,61.20
2018-05-29T13:08:56.985Z,62.30
2018-05-29T13:11:24.503Z,62.30
2018-05-29T13:13:52.052Z,64.70
2018-05-29T13:16:19.576Z,66.30
2018-05-29T13:18:47.134Z,67.80
2018-05-29T13:21:14.664Z,67.10
2018-05-29T13:23:42.224Z,67.30
2018-05-29T13:26:10.518Z,70.20
2018-05-29T13:28:38.067Z,70.20
2018-05-29T13:31:06.356Z,74.30
2018-05-29T13:33:33.896Z,74.30
2018-05-29T13:36:02.187Z,72.50
2018-05-29T13:38:30.494Z,74.40
2018-05-29T13:40:58.012Z,74.40
2018-05-29T13:43:25.539Z,71.70
2018-05-29T13:45:53.087Z,72.70
2018-05-29T13:48:20.645Z,72.00
2018-05-29T13:50:48.200Z,70.00
2018-05-29T13:53:15.725Z,70.60
2018-05-29T13:55:43.285Z,68.70
2018-05-29T13:58:11.581Z,69.10
2018-05-29T14:00:39.126Z,69.00
2018-05-29T14:03:07.434Z,68.00
2018-05-29T14:05:34.981Z,67.90
2018-05-29T14:08:02.505Z,68.00
2018-05-29T14:10:30.124Z,67.70
2018-05-29T14:12:57.653Z,68.30
2018-05-29T14:15:25.974Z,67.70
2018-05-29T14:17:53.492Z,67.70
2018-05-29T14:20:21.796Z,69.10
2018-05-29T14:22:49.321Z,69.00
2018-05-29T14:25:17.629Z,70.20
2018-05-29T14:27:45.156Z,70.10
2018-05-29T14:30:13.479Z,72.00
2018-05-29T14:32:41.004Z,73.50
2018-05-29T14:35:09.329Z,76.20
2018-05-29T14:37:36.849Z,76.10
2018-05-29T14:40:05.173Z,75.80
2018-05-29T14:42:32.699Z,75.80
2018-05-29T14:45:00.985Z,76.60
2018-05-29T14:47:28.528Z,76.70
2018-05-29T14:49:56.813Z,77.30
2018-05-29T14:52:24.410Z,77.20
2018-05-29T14:54:51.905Z,77.00
2018-05-29T14:57:19.524Z,74.20
2018-05-29T14:59:47.083Z,74.60
2018-05-29T15:02:14.629Z,75.00
2018-05-29T15:04:42.208Z,72.70
2018-05-29T15:07:10.282Z,72.20
2018-05-29T15:09:37.853Z,72.20
2018-05-29T15:12:05.398Z,70.00
2018-05-29T15:14:32.925Z,69.20
2018-05-29T15:17:01.228Z,70.00
2018-05-29T15:19:28.752Z,70.00
2018-05-29T15:21:56.296Z,71.20
2018-05-29T15:24:23.819Z,70.70
2018-05-29T15:26:51.348Z,70.90
2018-05-29T15:29:19.651Z,74.10
2018-05-29T15:31:47.172Z,74.10
2018-05-29T15:34:16.225Z,79.30
2018-05-29T15:36:43.747Z,79.30
2018-05-29T15:39:12.059Z,80.70
2018-05-29T15:41:39.584Z,80.70
2018-05-29T15:44:07.895Z,83.20
2018-05-29T15:46:35.421Z,83.20
2018-05-29T15:49:03.739Z,83.50
2018-05-29T15:51:31.256Z,83.40
2018-05-29T15:53:59.573Z,85.10
2018-05-29T15:56:27.139Z,85.10
2018-05-29T15:58:54.684Z,86.90
2018-05-29T16:01:22.269Z,84.50
2018-05-29T16:03:49.812Z,85.40
2018-05-29T16:06:17.345Z,88.20
2018-05-29T16:08:46.618Z,93.00
2018-05-29T16:11:14.211Z,93.10
2018-05-29T16:13:43.137Z,93.80
2018-05-29T16:16:10.669Z,95.70
2018-05-29T16:18:38.977Z,99.90
2018-05-29T16:21:06.501Z,99.90
2018-05-29T16:23:34.824Z,99.90
2018-05-29T16:26:02.364Z,99.90
2018-05-29T16:28:29.884Z,99.90
2018-05-29T16:30:57.428Z,99.90
2018-05-29T16:33:24.948Z,99.90
2018-05-29T16:35:52.487Z,99.90
2018-05-29T16:38:20.781Z,99.90
2018-05-29T16:40:48.391Z,99.90
2018-05-29T16:43:15.866Z,99.90
2018-05-29T16:45:43.413Z,99.90
2018-05-29T16:48:10.934Z,99.90
2018-05-29T16:50:38.470Z,99.90
2018-05-29T16:53:06.753Z,99.90
2018-05-29T16:55:35.056Z,99.90
2018-05-29T16:58:02.567Z,99.90
2018-05-29T17:00:30.106Z,99.90
2018-05-29T17:02:57.641Z,99.90
2018-05-29T17:05:25.180Z,99.90
2018-05-29T17:07:52.699Z,99.90
2018-05-29T17:10:20.232Z,99.90
2018-05-29T17:12:47.748Z,99.90
2018-05-29T17:15:16.152Z,99.90
2018-05-29T17:17:43.592Z,99.90
2018-05-29T17:20:11.897Z,99.90
2018-05-29T17:22:39.414Z,99.90
2018-05-29T17:25:06.985Z,99.90
2018-05-29T17:27:35.276Z,99.90
2018-05-29T17:30:02.804Z,99.90
2018-05-29T17:32:31.112Z,99.90
2018-05-29T17:34:59.388Z,99.90
2018-05-29T17:37:27.724Z,99.90
2018-05-29T17:39:55.263Z,99.90
2018-05-29T17:42:22.800Z,99.90
2018-05-29T17:44:50.434Z,99.90
2018-05-29T17:47:18.750Z,99.90
2018-05-29T17:49:46.268Z,99.90
2018-05-29T17:52:13.864Z,99.90
2018-05-29T17:54:41.403Z,99.90
2018-05-29T17:57:09.709Z,99.90
2018-05-29T17:59:37.258Z,99.90
2018-05-29T18:02:04.801Z,99.90
2018-05-29T18:04:33.076Z,99.90
2018-05-29T18:07:39.504Z,99.90
2018-05-29T18:10:07.524Z,99.90
2018-05-29T18:13:09.937Z,99.90
2018-05-29T18:21:17.895Z,99.90
2018-05-29T18:23:48.552Z,99.90
2018-05-29T18:26:19.987Z,99.90
2018-05-29T18:28:50.291Z,99.90
2018-05-29T18:31:21.999Z,99.90
2018-05-29T18:33:56.538Z,99.90
2018-05-29T18:36:27.440Z,99.90
2018-05-29T18:39:14.672Z,99.90
2018-05-29T18:41:45.814Z,99.90
2018-05-29T18:44:17.336Z,99.90
2018-05-29T18:46:56.548Z,99.90
2018-05-29T18:49:26.592Z,99.90
2018-05-29T18:51:56.525Z,99.90
2018-05-29T18:54:27.961Z,99.90
2018-05-29T18:56:56.656Z,99.90
2018-05-29T18:59:25.529Z,99.90
2018-05-29T19:01:55.317Z,99.90
2018-05-29T19:04:27.621Z,99.90
2018-05-29T19:06:57.262Z,99.90
2018-05-29T19:09:25.103Z,99.90
2018-05-29T19:11:53.484Z,99.90
2018-05-29T19:14:21.134Z,99.90
2018-05-29T19:16:48.998Z,99.90
2018-05-29T19:19:16.957Z,99.90
2018-05-29T19:21:45.767Z,99.90
2018-05-29T19:24:13.341Z,99.90
2018-05-29T19:26:41.117Z,99.90
2018-05-29T19:29:08.729Z,99.90
2018-05-29T19:31:37.040Z,99.90
2018-05-29T19:34:04.605Z,99.90
2018-05-29T19:36:32.144Z,99.90
2018-05-29T19:38:59.664Z,99.90
2018-05-29T19:41:27.286Z,99.90
2018-05-29T19:43:54.804Z,99.90
2018-05-29T19:46:22.413Z,99.90
2018-05-29T19:48:49.940Z,99.90
2018-05-29T19:51:17.544Z,99.90
2018-05-29T19:53:45.035Z,99.90
2018-05-29T19:56:12.577Z,99.90
2018-05-29T19:58:40.103Z,99.90
2018-05-29T20:01:07.642Z,99.90
2018-05-29T20:03:35.932Z,99.90
2018-05-29T20:06:04.248Z,99.90
2018-05-29T20:08:31.764Z,99.90
2018-05-29T20:11:00.075Z,99.90
2018-05-29T20:13:27.592Z,99.90
2018-05-29T20:15:55.899Z,99.90
2018-05-29T20:18:23.429Z,99.90
2018-05-29T20:20:51.733Z,99.90
2018-05-29T20:23:19.267Z,99.90
2018-05-29T20:25:47.569Z,99.90
2018-05-29T20:28:15.086Z,99.90
2018-05-29T20:30:42.640Z,99.90
2018-05-29T20:33:10.156Z,99.90
2018-05-29T20:35:37.677Z,99.90
2018-05-29T20:38:05.212Z,99.90
2018-05-29T20:40:32.725Z,99.90
2018-05-29T20:43:01.032Z,99.90
2018-05-29T20:45:28.557Z,99.90
2018-05-29T20:47:56.873Z,99.90
2018-05-29T20:50:24.393Z,99.90
2018-05-29T20:52:52.701Z,99.90
2018-05-29T20:55:20.286Z,99.90
2018-05-29T20:57:47.835Z,99.90
2018-05-29T21:00:15.356Z,99.90
2018-05-29T21:02:43.662Z,99.90
2018-05-29T21:05:11.181Z,99.90
2018-05-29T21:07:40.219Z,99.90
2018-05-29T21:10:07.733Z,99.90
2018-05-29T21:12:35.268Z,99.90
2018-05-29T21:15:02.780Z,99.90
2018-05-29T21:17:31.088Z,99.90
2018-05-29T21:19:58.609Z,99.90
2018-05-29T21:22:26.915Z,99.90
2018-05-29T21:24:54.436Z,99.90
2018-05-29T21:27:22.055Z,99.90
2018-05-29T21:29:49.567Z,99.90
2018-05-29T21:32:17.848Z,99.90
2018-05-29T21:34:46.160Z,99.90
2018-05-29T21:37:13.679Z,99.90
2018-05-29T21:39:41.225Z,99.90
2018-05-29T21:42:08.743Z,99.90
2018-05-29T21:44:36.284Z,99.90
2018-05-29T21:47:03.868Z,99.90
2018-05-29T21:49:31.408Z,99.90
2018-05-29T21:51:59.695Z,99.90
2018-05-29T21:54:27.241Z,99.90
2018-05-29T21:56:55.541Z,99.90
2018-05-29T21:59:23.116Z,99.90
2018-05-29T22:01:50.635Z,99.90
2018-05-29T22:04:18.943Z,99.90
2018-05-29T22:06:46.468Z,99.90
2018-05-29T22:09:14.017Z,99.90
2018-05-29T22:11:41.639Z,99.90
2018-05-29T22:14:09.197Z,99.90
2018-05-29T22:16:36.760Z,99.90
2018-05-29T22:19:04.312Z,99.90
2018-05-29T22:21:31.856Z,99.90
2018-05-29T22:23:59.541Z,99.90
2018-05-29T22:26:27.205Z,99.90
2018-05-29T22:28:54.724Z,99.90
2018-05-29T22:31:23.029Z,99.90
2018-05-29T22:33:50.548Z,99.90
2018-05-29T22:36:18.180Z,99.90
2018-05-29T22:38:45.708Z,99.90
2018-05-29T22:41:13.253Z,99.90
2018-05-29T22:43:41.534Z,99.90
2018-05-29T22:46:09.835Z,99.90
2018-05-29T22:48:37.359Z,99.90
2018-05-29T22:51:04.912Z,99.90
2018-05-29T22:53:32.539Z,99.90
2018-05-29T22:56:00.092Z,99.90
2018-05-29T22:58:27.657Z,99.90
2018-05-29T23:00:55.172Z,99.90
2018-05-29T23:03:23.480Z,99.90
2018-05-29T23:05:51.011Z,99.90
2018-05-29T23:08:19.316Z,99.90
2018-05-29T23:10:46.836Z,99.90
2018-05-29T23:13:14.375Z,99.90
2018-05-29T23:15:41.916Z,99.90
2018-05-29T23:18:09.470Z,99.90
2018-05-29T23:20:36.992Z,99.90
2018-05-29T23:23:05.297Z,99.90
2018-05-29T23:25:32.824Z,99.90
2018-05-29T23:28:00.368Z,99.90
2018-05-29T23:30:27.892Z,99.90
2018-05-29T23:32:55.432Z,99.90
2018-05-29T23:35:22.956Z,99.90
2018-05-29T23:37:50.494Z,99.90
2018-05-29T23:40:18.008Z,99.90
2018-05-29T23:42:45.544Z,99.90
2018-05-29T23:45:13.151Z,99.90
2018-05-29T23:47:40.670Z,99.90
2018-05-29T23:50:08.988Z,99.90
2018-05-29T23:52:36.506Z,99.90
2018-05-29T23:55:04.045Z,99.90
2018-05-29T23:57:31.564Z,99.90
2018-05-29T23:59:59.100Z,99.90
